createdAt,value
2022-08-21T00:02:25.530Z,99.90
2022-08-21T00:06:28.742Z,99.90
2022-08-21T00:10:34.508Z,99.90
2022-08-21T00:14:37.831Z,99.90
2022-08-21T00:18:42.250Z,99.90
2022-08-21T00:22:46.171Z,99.90
2022-08-21T00:26:50.889Z,99.90
2022-08-21T00:30:54.105Z,99.90
2022-08-21T00:34:58.513Z,99.90
2022-08-21T00:39:02.051Z,99.90
2022-08-21T00:43:09.661Z,99.90
2022-08-21T00:47:13.703Z,99.90
2022-08-21T00:51:26.454Z,99.90
2022-08-21T00:55:31.425Z,99.90
2022-08-21T00:59:39.817Z,99.90
2022-08-21T01:03:44.153Z,99.90
2022-08-21T01:07:48.847Z,99.90
2022-08-21T01:11:52.588Z,99.90
2022-08-21T01:16:01.579Z,99.90
2022-08-21T01:20:09.116Z,99.00
2022-08-21T01:24:14.197Z,97.90
2022-08-21T01:28:17.570Z,96.30
2022-08-21T01:32:21.745Z,96.30
2022-08-21T01:36:25.655Z,96.60
2022-08-21T01:40:30.866Z,95.30
2022-08-21T01:44:34.168Z,97.40
2022-08-21T01:48:39.416Z,97.70
2022-08-21T01:52:43.314Z,97.30
2022-08-21T01:56:52.153Z,98.50
2022-08-21T02:00:55.637Z,98.00
2022-08-21T02:04:58.860Z,98.60
2022-08-21T02:09:02.203Z,98.00
2022-08-21T02:13:08.321Z,96.60
2022-08-21T02:17:16.537Z,98.10
2022-08-21T02:21:20.128Z,99.10
2022-08-21T02:25:24.897Z,99.10
2022-08-21T02:29:29.607Z,99.30
2022-08-21T02:33:33.040Z,99.80
2022-08-21T02:37:36.247Z,96.80
2022-08-21T02:41:45.681Z,99.90
2022-08-21T02:45:51.174Z,99.90
2022-08-21T02:49:54.865Z,99.90
2022-08-21T02:53:58.083Z,99.90
2022-08-21T02:58:03.062Z,99.30
2022-08-21T03:02:07.874Z,99.80
2022-08-21T03:06:14.125Z,99.90
2022-08-21T03:10:18.792Z,99.90
2022-08-21T03:14:22.170Z,99.90
2022-08-21T03:18:26.781Z,99.90
2022-08-21T03:22:30.730Z,99.90
2022-08-21T03:26:34.471Z,99.90
2022-08-21T03:30:38.082Z,99.90
2022-08-21T03:34:43.178Z,99.90
2022-08-21T03:38:46.547Z,99.90
2022-08-21T03:42:50.408Z,99.90
2022-08-21T03:46:53.640Z,99.90
2022-08-21T03:50:58.248Z,99.90
2022-08-21T03:55:01.535Z,99.90
2022-08-21T03:59:05.563Z,99.90
2022-08-21T04:03:09.966Z,99.90
2022-08-21T04:07:16.534Z,99.90
2022-08-21T04:11:20.967Z,99.90
2022-08-21T04:15:25.741Z,99.90
2022-08-21T04:19:31.009Z,99.90
2022-08-21T04:23:35.658Z,99.90
2022-08-21T04:27:39.418Z,99.90
2022-08-21T04:31:44.679Z,99.90
2022-08-21T04:35:48.858Z,99.90
2022-08-21T04:39:54.459Z,99.90
2022-08-21T04:43:57.890Z,99.90
2022-08-21T04:48:05.017Z,99.90
2022-08-21T04:52:08.226Z,99.90
2022-08-21T04:56:16.440Z,99.90
2022-08-21T05:00:20.338Z,99.90
2022-08-21T05:04:27.687Z,99.90
2022-08-21T05:08:31.194Z,99.90
2022-08-21T05:12:37.094Z,99.90
2022-08-21T05:16:41.678Z,99.90
2022-08-21T05:20:45.750Z,99.90
2022-08-21T05:24:49.301Z,99.90
2022-08-21T05:28:54.130Z,99.90
2022-08-21T05:33:00.426Z,99.20
2022-08-21T05:37:07.539Z,97.70
2022-08-21T05:41:15.197Z,97.20
2022-08-21T05:45:42.254Z,96.30
2022-08-21T05:49:43.328Z,95.20
2022-08-21T05:53:46.910Z,94.50
2022-08-21T05:57:50.258Z,94.70
2022-08-21T06:01:55.727Z,93.50
2022-08-21T06:05:59.035Z,93.80
2022-08-21T06:10:02.543Z,94.90
2022-08-21T06:14:07.448Z,95.90
2022-08-21T06:18:12.688Z,96.50
2022-08-21T06:22:15.935Z,96.20
2022-08-21T06:26:19.408Z,93.50
2022-08-21T06:30:23.127Z,95.50
2022-08-21T06:34:28.194Z,95.90
2022-08-21T06:38:31.364Z,95.30
2022-08-21T06:42:41.391Z,96.00
2022-08-21T06:46:47.581Z,95.90
2022-08-21T06:50:54.197Z,96.00
2022-08-21T06:54:57.373Z,94.50
2022-08-21T06:59:00.580Z,96.10
2022-08-21T07:03:03.972Z,95.90
2022-08-21T07:07:09.595Z,94.10
2022-08-21T07:11:17.151Z,93.20
2022-08-21T07:15:20.668Z,93.60
2022-08-21T07:19:24.483Z,93.00
2022-08-21T07:23:32.889Z,92.80
2022-08-21T07:27:36.128Z,94.00
2022-08-21T07:31:43.477Z,94.30
2022-08-21T07:35:46.839Z,93.40
2022-08-21T07:39:52.230Z,93.00
2022-08-21T07:43:55.514Z,92.50
2022-08-21T07:47:58.753Z,93.10
2022-08-21T07:52:02.261Z,93.10
2022-08-21T07:56:09.215Z,93.30
2022-08-21T08:00:16.320Z,93.30
2022-08-21T08:04:22.232Z,93.90
2022-08-21T08:08:29.260Z,94.50
2022-08-21T08:12:33.955Z,92.20
2022-08-21T08:16:37.116Z,92.00
2022-08-21T08:20:40.459Z,91.00
2022-08-21T08:24:43.768Z,90.30
2022-08-21T08:28:48.897Z,90.90
2022-08-21T08:32:52.560Z,90.40
2022-08-21T08:36:55.949Z,90.10
2022-08-21T08:41:07.619Z,91.00
2022-08-21T08:45:17.583Z,90.90
2022-08-21T08:49:25.346Z,91.00
2022-08-21T08:53:34.292Z,91.30
2022-08-21T08:57:39.425Z,92.40
2022-08-21T09:01:44.822Z,93.30
2022-08-21T09:05:52.052Z,92.00
2022-08-21T09:10:07.261Z,93.10
2022-08-21T09:14:19.177Z,94.30
2022-08-21T09:18:35.347Z,92.30
2022-08-21T09:22:45.172Z,93.50
2022-08-21T09:26:55.501Z,92.30
2022-08-21T09:31:03.597Z,92.50
2022-08-21T09:35:11.614Z,91.20
2022-08-21T09:39:24.158Z,90.60
2022-08-21T09:43:27.426Z,92.00
2022-08-21T09:47:31.409Z,93.60
2022-08-21T09:51:38.851Z,92.30
2022-08-21T09:56:09.641Z,91.50
2022-08-21T10:00:21.155Z,90.20
2022-08-21T10:04:29.107Z,87.80
2022-08-21T10:08:36.107Z,86.50
2022-08-21T10:12:49.092Z,85.10
2022-08-21T10:17:04.804Z,83.90
2022-08-21T10:21:16.801Z,81.20
2022-08-21T10:25:28.468Z,81.00
2022-08-21T10:29:45.913Z,80.50
2022-08-21T10:33:56.144Z,77.60
2022-08-21T10:38:48.742Z,79.70
2022-08-21T10:43:04.148Z,81.90
2022-08-21T10:47:12.079Z,82.50
2022-08-21T10:51:29.183Z,82.80
2022-08-21T10:55:37.496Z,82.30
2022-08-21T10:59:47.945Z,82.00
2022-08-21T11:03:56.167Z,81.70
2022-08-21T11:08:08.238Z,83.10
2022-08-21T11:12:25.725Z,80.90
2022-08-21T11:16:40.216Z,80.30
2022-08-21T11:20:51.058Z,79.80
2022-08-21T11:25:01.820Z,79.90
2022-08-21T11:29:12.983Z,79.70
2022-08-21T11:33:32.050Z,79.60
2022-08-21T11:37:48.712Z,80.10
2022-08-21T11:42:04.697Z,80.70
2022-08-21T11:46:20.495Z,80.50
2022-08-21T11:50:34.576Z,81.60
2022-08-21T11:54:44.497Z,81.50
2022-08-21T11:58:53.361Z,81.60
2022-08-21T12:03:08.754Z,80.50
2022-08-21T12:07:19.377Z,78.40
2022-08-21T12:11:29.761Z,79.20
2022-08-21T12:15:34.500Z,77.40
2022-08-21T12:19:37.933Z,77.30
2022-08-21T12:23:51.328Z,79.70
2022-08-21T12:28:05.255Z,78.80
2022-08-21T12:32:27.591Z,80.80
2022-08-21T12:36:44.918Z,82.70
2022-08-21T12:40:56.842Z,83.40
2022-08-21T12:45:04.816Z,83.60
2022-08-21T12:49:15.812Z,84.00
2022-08-21T12:53:31.369Z,83.40
2022-08-21T12:57:39.661Z,82.70
2022-08-21T13:01:51.463Z,82.90
2022-08-21T13:05:55.432Z,83.60
2022-08-21T13:10:01.050Z,83.60
2022-08-21T13:14:06.622Z,84.20
2022-08-21T13:18:21.710Z,84.60
2022-08-21T13:22:34.561Z,85.20
2022-08-21T13:26:38.856Z,82.90
2022-08-21T13:30:45.759Z,83.50
2022-08-21T13:34:49.199Z,85.30
2022-08-21T13:38:57.657Z,85.10
2022-08-21T13:43:02.876Z,85.50
2022-08-21T13:47:08.426Z,85.90
2022-08-21T13:51:12.523Z,85.30
2022-08-21T13:55:18.410Z,85.90
2022-08-21T13:59:32.768Z,87.00
2022-08-21T14:03:45.732Z,87.70
2022-08-21T14:07:49.706Z,85.10
2022-08-21T14:11:53.547Z,85.60
2022-08-21T14:15:59.319Z,85.40
2022-08-21T14:20:05.516Z,85.80
2022-08-21T14:24:12.463Z,85.20
2022-08-21T14:28:27.077Z,84.60
2022-08-21T14:32:38.707Z,82.10
2022-08-21T14:36:50.661Z,82.80
2022-08-21T14:40:56.414Z,84.20
2022-08-21T14:45:07.437Z,84.20
2022-08-21T14:49:10.632Z,83.80
2022-08-21T14:53:15.428Z,82.40
2022-08-21T14:57:18.780Z,81.20
2022-08-21T15:01:24.275Z,84.20
2022-08-21T15:05:32.985Z,84.50
2022-08-21T15:09:38.788Z,83.00
2022-08-21T15:13:42.465Z,82.60
2022-08-21T15:17:48.296Z,83.20
2022-08-21T15:21:52.185Z,82.90
2022-08-21T15:25:59.800Z,82.30
2022-08-21T15:30:04.352Z,82.80
2022-08-21T15:34:07.579Z,80.60
2022-08-21T15:38:11.509Z,79.70
2022-08-21T15:42:16.161Z,80.20
2022-08-21T15:46:21.550Z,79.80
2022-08-21T15:50:25.998Z,79.90
2022-08-21T15:54:29.331Z,79.70
2022-08-21T15:58:33.967Z,81.90
2022-08-21T16:02:38.150Z,82.10
2022-08-21T16:06:55.683Z,80.60
2022-08-21T16:11:03.019Z,79.50
2022-08-21T16:15:10.935Z,79.50
2022-08-21T16:19:24.175Z,79.30
2022-08-21T16:23:27.401Z,79.30
2022-08-21T16:27:30.829Z,80.20
2022-08-21T16:31:39.281Z,80.00
2022-08-21T16:35:42.449Z,80.80
2022-08-21T16:39:45.878Z,81.10
2022-08-21T16:43:51.184Z,81.10
2022-08-21T16:47:55.771Z,82.10
2022-08-21T16:51:59.006Z,81.90
2022-08-21T16:56:02.655Z,80.90
2022-08-21T17:00:10.558Z,82.10
2022-08-21T17:04:15.268Z,81.90
2022-08-21T17:08:19.564Z,81.60
2022-08-21T17:12:23.459Z,81.20
2022-08-21T17:16:28.240Z,82.20
2022-08-21T17:20:33.414Z,81.70
2022-08-21T17:24:37.370Z,82.20
2022-08-21T17:28:41.122Z,82.80
2022-08-21T17:32:45.892Z,83.50
2022-08-21T17:36:50.473Z,83.50
2022-08-21T17:40:54.272Z,83.40
2022-08-21T17:44:57.761Z,83.80
2022-08-21T17:49:02.992Z,83.80
2022-08-21T17:53:29.168Z,85.20
2022-08-21T17:57:43.101Z,84.30
2022-08-21T18:01:52.202Z,85.00
2022-08-21T18:05:59.447Z,84.70
2022-08-21T18:10:17.738Z,85.40
2022-08-21T18:14:47.768Z,85.10
2022-08-21T18:18:58.548Z,85.90
2022-08-21T18:23:03.019Z,85.70
2022-08-21T18:27:10.046Z,86.90
2022-08-21T18:31:16.330Z,87.10
2022-08-21T18:35:21.051Z,87.80
2022-08-21T18:39:36.306Z,89.50
2022-08-21T18:43:42.008Z,90.40
2022-08-21T18:47:54.641Z,91.20
2022-08-21T18:52:03.327Z,91.10
2022-08-21T18:56:15.501Z,91.80
2022-08-21T19:00:27.505Z,91.50
2022-08-21T19:04:44.692Z,92.10
2022-08-21T19:08:50.004Z,92.20
2022-08-21T19:12:59.714Z,93.30
2022-08-21T19:17:14.840Z,93.50
2022-08-21T19:21:18.877Z,93.10
2022-08-21T19:29:47.189Z,93.50
2022-08-21T19:33:59.705Z,93.20
2022-08-21T19:38:06.477Z,92.80
2022-08-21T19:42:16.277Z,92.90
2022-08-21T19:46:25.372Z,92.90
2022-08-21T19:50:30.651Z,92.90
2022-08-21T19:54:34.946Z,92.20
2022-08-21T19:58:41.051Z,92.80
2022-08-21T20:02:48.190Z,93.10
2022-08-21T20:06:53.388Z,93.40
2022-08-21T20:10:59.795Z,92.90
2022-08-21T20:15:09.008Z,93.40
2022-08-21T20:19:13.574Z,92.50
2022-08-21T20:23:19.585Z,92.70
2022-08-21T20:27:36.392Z,92.10
2022-08-21T20:31:44.002Z,92.20
2022-08-21T20:35:50.175Z,92.00
2022-08-21T20:39:55.850Z,91.00
2022-08-21T20:44:01.664Z,91.00
2022-08-21T20:48:13.513Z,92.30
2022-08-21T20:56:49.537Z,91.40
2022-08-21T21:00:54.928Z,92.20
2022-08-21T21:05:06.019Z,92.20
2022-08-21T21:09:14.668Z,92.30
2022-08-21T21:13:24.403Z,93.10
2022-08-21T21:17:33.340Z,93.70
2022-08-21T21:21:41.714Z,93.00
2022-08-21T21:26:01.986Z,93.50
2022-08-21T21:30:14.384Z,94.10
2022-08-21T21:34:17.975Z,94.70
2022-08-21T21:38:27.067Z,94.60
2022-08-21T21:42:41.616Z,95.10
2022-08-21T21:46:55.472Z,94.20
2022-08-21T21:51:03.621Z,95.10
2022-08-21T21:55:33.737Z,95.40
2022-08-21T21:59:48.755Z,95.30
2022-08-21T22:08:39.368Z,94.10
2022-08-21T22:12:53.796Z,95.00
2022-08-21T22:17:09.525Z,94.80
2022-08-21T22:21:22.440Z,95.10
2022-08-21T22:25:30.596Z,95.00
2022-08-21T22:29:48.274Z,95.60
2022-08-21T22:34:05.938Z,92.80
2022-08-21T22:38:29.308Z,93.50
2022-08-21T22:42:34.235Z,92.80
2022-08-21T22:46:40.958Z,94.00
2022-08-21T22:50:44.525Z,92.80
2022-08-21T22:54:53.089Z,93.30
2022-08-21T22:58:59.533Z,93.20
2022-08-21T23:03:03.621Z,92.90
2022-08-21T23:07:06.991Z,92.60
2022-08-21T23:11:17.968Z,92.90
2022-08-21T23:15:22.246Z,94.10
2022-08-21T23:19:38.447Z,94.80
2022-08-21T23:24:01.588Z,95.00
2022-08-21T23:28:14.170Z,94.90
2022-08-21T23:32:57.293Z,94.00
2022-08-21T23:37:48.846Z,94.00
2022-08-21T23:42:00.066Z,92.80
2022-08-21T23:46:19.106Z,93.50
2022-08-21T23:50:46.799Z,94.20
2022-08-21T23:55:12.042Z,94.90
2022-08-21T23:59:31.954Z,93.80
